createdAt,value
2024-01-07T00:00:17.228Z,3.84
2024-01-07T00:02:20.928Z,3.83
2024-01-07T00:04:23.983Z,3.84
2024-01-07T00:06:25.627Z,3.91
2024-01-07T00:08:27.175Z,3.85
2024-01-07T00:10:28.694Z,3.84
2024-01-07T00:12:30.369Z,3.90
2024-01-07T00:14:31.969Z,3.92
2024-01-07T00:16:33.490Z,3.94
2024-01-07T00:18:35.160Z,3.98
2024-01-07T00:20:38.080Z,3.97
2024-01-07T00:22:39.594Z,3.93
2024-01-07T00:24:41.175Z,3.86
2024-01-07T00:26:42.866Z,3.84
2024-01-07T00:28:44.467Z,3.80
2024-01-07T00:30:46.034Z,3.84
2024-01-07T00:32:47.623Z,3.88
2024-01-07T00:34:51.178Z,3.77
2024-01-07T00:36:55.807Z,3.76
2024-01-07T00:38:57.344Z,3.86
2024-01-07T00:40:58.892Z,3.77
2024-01-07T00:43:00.438Z,3.68
2024-01-07T00:45:02.083Z,3.59
2024-01-07T00:47:04.104Z,3.69
2024-01-07T00:49:05.773Z,3.70
2024-01-07T00:51:07.310Z,3.57
2024-01-07T00:53:10.185Z,3.62
2024-01-07T00:55:11.743Z,3.53
2024-01-07T00:57:13.460Z,3.52
2024-01-07T00:59:14.953Z,3.53
2024-01-07T01:01:16.738Z,3.36
2024-01-07T01:03:18.336Z,3.41
2024-01-07T01:05:20.052Z,3.43
2024-01-07T01:07:21.669Z,3.22
2024-01-07T01:09:24.570Z,3.34
2024-01-07T01:11:26.104Z,3.35
2024-01-07T01:13:27.655Z,3.37
2024-01-07T01:15:29.219Z,3.32
2024-01-07T01:17:31.362Z,3.36
2024-01-07T01:19:33.054Z,3.38
2024-01-07T01:21:34.714Z,3.42
2024-01-07T01:23:36.307Z,3.46
2024-01-07T01:25:39.266Z,3.39
2024-01-07T01:27:40.919Z,3.50
2024-01-07T01:29:42.501Z,3.51
2024-01-07T01:31:44.134Z,3.46
2024-01-07T01:33:45.927Z,3.46
2024-01-07T01:35:47.544Z,3.46
2024-01-07T01:37:49.173Z,3.42
2024-01-07T01:39:50.802Z,3.57
2024-01-07T01:41:53.688Z,3.56
2024-01-07T01:43:59.053Z,3.58
2024-01-07T01:46:00.881Z,3.49
2024-01-07T01:48:02.687Z,3.49
2024-01-07T01:50:05.638Z,3.60
2024-01-07T01:52:07.364Z,3.42
2024-01-07T01:54:09.098Z,3.34
2024-01-07T01:56:10.741Z,3.29
2024-01-07T01:58:14.320Z,3.28
2024-01-07T02:00:16.573Z,3.18
2024-01-07T02:02:18.335Z,3.27
2024-01-07T02:04:20.056Z,3.03
2024-01-07T02:06:22.724Z,3.05
2024-01-07T02:08:26.064Z,3.15
2024-01-07T02:10:27.586Z,3.20
2024-01-07T02:12:29.217Z,3.00
2024-01-07T02:14:32.091Z,3.03
2024-01-07T02:16:33.999Z,3.15
2024-01-07T02:18:35.851Z,3.12
2024-01-07T02:20:37.492Z,3.12
2024-01-07T02:22:39.054Z,3.25
2024-01-07T02:24:41.987Z,3.24
2024-01-07T02:26:43.830Z,3.28
2024-01-07T02:28:45.663Z,3.28
2024-01-07T02:30:47.608Z,3.29
2024-01-07T02:32:49.478Z,3.33
2024-01-07T02:34:51.342Z,3.21
2024-01-07T02:36:53.306Z,3.30
2024-01-07T02:38:55.156Z,3.27
2024-01-07T02:40:58.168Z,3.26
2024-01-07T02:42:59.923Z,3.29
2024-01-07T02:45:01.696Z,3.27
2024-01-07T02:47:04.051Z,3.12
2024-01-07T02:49:05.901Z,3.18
2024-01-07T02:51:09.354Z,3.19
2024-01-07T02:53:10.912Z,3.24
2024-01-07T02:55:12.965Z,3.33
2024-01-07T02:57:15.957Z,3.18
2024-01-07T02:59:17.642Z,3.29
2024-01-07T03:01:22.541Z,3.19
2024-01-07T03:03:24.730Z,3.28
2024-01-07T03:05:26.724Z,3.33
2024-01-07T03:07:29.008Z,3.24
2024-01-07T03:09:30.546Z,3.30
2024-01-07T03:11:32.075Z,3.30
2024-01-07T03:13:35.140Z,3.32
2024-01-07T03:15:36.734Z,3.36
2024-01-07T03:17:38.378Z,3.24
2024-01-07T03:19:40.021Z,3.36
2024-01-07T03:21:41.566Z,3.35
2024-01-07T03:23:43.140Z,3.38
2024-01-07T03:25:44.672Z,3.29
2024-01-07T03:27:46.169Z,3.37
2024-01-07T03:29:49.078Z,3.38
2024-01-07T03:31:50.784Z,3.35
2024-01-07T03:33:52.542Z,3.32
2024-01-07T03:35:54.169Z,3.08
2024-01-07T03:37:55.681Z,3.27
2024-01-07T03:39:57.417Z,3.30
2024-01-07T03:41:58.980Z,3.15
2024-01-07T03:44:00.638Z,3.21
2024-01-07T03:46:03.628Z,3.28
2024-01-07T03:48:05.772Z,3.30
2024-01-07T03:50:07.743Z,3.31
2024-01-07T03:52:09.850Z,3.33
2024-01-07T03:54:11.465Z,3.28
2024-01-07T03:56:13.025Z,3.32
2024-01-07T03:58:14.610Z,3.10
2024-01-07T04:00:16.375Z,3.12
2024-01-07T04:02:19.274Z,3.12
2024-01-07T04:04:20.918Z,3.21
2024-01-07T04:06:22.486Z,3.28
2024-01-07T04:08:24.054Z,3.32
2024-01-07T04:10:25.588Z,3.17
2024-01-07T04:12:27.209Z,3.29
2024-01-07T04:14:28.780Z,3.24
2024-01-07T04:16:30.468Z,3.29
2024-01-07T04:18:33.513Z,3.21
2024-01-07T04:20:35.111Z,3.23
2024-01-07T04:22:36.660Z,3.32
2024-01-07T04:24:41.711Z,3.34
2024-01-07T04:26:43.260Z,3.35
2024-01-07T04:28:45.463Z,3.43
2024-01-07T04:30:47.048Z,3.47
2024-01-07T04:32:48.799Z,3.36
2024-01-07T04:34:51.856Z,3.26
2024-01-07T04:36:53.488Z,3.35
2024-01-07T04:38:55.025Z,3.36
2024-01-07T04:40:56.592Z,3.38
2024-01-07T04:42:58.192Z,3.44
2024-01-07T04:44:59.786Z,3.34
2024-01-07T04:47:01.350Z,3.28
2024-01-07T04:49:03.000Z,3.20
2024-01-07T04:51:06.031Z,3.32
2024-01-07T04:53:07.529Z,3.37
2024-01-07T04:55:09.345Z,3.40
2024-01-07T04:57:10.944Z,3.36
2024-01-07T04:59:12.454Z,3.36
2024-01-07T05:01:14.080Z,3.38
2024-01-07T05:03:15.691Z,3.38
2024-01-07T05:05:17.294Z,3.42
2024-01-07T05:07:20.272Z,3.41
2024-01-07T05:09:21.859Z,3.29
2024-01-07T05:11:23.404Z,3.35
2024-01-07T05:13:24.907Z,3.43
2024-01-07T05:15:26.499Z,3.28
2024-01-07T05:17:29.828Z,3.30
2024-01-07T05:19:31.384Z,3.32
2024-01-07T05:21:32.969Z,3.31
2024-01-07T05:23:35.882Z,3.21
2024-01-07T05:25:37.412Z,3.22
2024-01-07T05:27:38.998Z,3.30
2024-01-07T05:29:40.565Z,3.35
2024-01-07T05:31:42.271Z,3.34
2024-01-07T05:33:44.441Z,3.28
2024-01-07T05:35:46.014Z,3.39
2024-01-07T05:37:47.557Z,3.27
2024-01-07T05:39:50.489Z,3.17
2024-01-07T05:41:52.036Z,3.18
2024-01-07T05:43:53.598Z,3.08
2024-01-07T05:45:55.132Z,3.12
2024-01-07T05:47:56.739Z,3.13
2024-01-07T05:49:58.405Z,3.08
2024-01-07T05:52:00.049Z,3.07
2024-01-07T05:54:01.576Z,3.11
2024-01-07T05:56:05.047Z,3.17
2024-01-07T05:58:06.709Z,3.19
2024-01-07T06:00:09.252Z,3.15
2024-01-07T06:02:11.076Z,3.02
2024-01-07T06:04:12.709Z,3.17
2024-01-07T06:06:14.913Z,3.01
2024-01-07T06:08:16.529Z,3.09
2024-01-07T06:10:18.103Z,3.07
2024-01-07T06:12:21.008Z,2.97
2024-01-07T06:14:22.683Z,2.98
2024-01-07T06:16:24.193Z,3.06
2024-01-07T06:18:25.905Z,3.06
2024-01-07T06:20:27.578Z,3.10
2024-01-07T06:22:29.084Z,3.07
2024-01-07T06:24:30.612Z,3.08
2024-01-07T06:26:32.205Z,3.11
2024-01-07T06:28:35.062Z,3.07
2024-01-07T06:30:36.806Z,3.10
2024-01-07T06:32:38.455Z,3.27
2024-01-07T06:34:40.029Z,3.20
2024-01-07T06:36:41.829Z,3.09
2024-01-07T06:38:43.378Z,3.03
2024-01-07T06:40:44.871Z,3.13
2024-01-07T06:42:46.568Z,3.03
2024-01-07T06:44:49.458Z,2.99
2024-01-07T06:46:51.020Z,2.88
2024-01-07T06:48:52.720Z,2.92
2024-01-07T06:50:54.291Z,2.88
2024-01-07T06:52:55.772Z,2.82
2024-01-07T06:54:57.317Z,2.72
2024-01-07T06:56:58.931Z,2.80
2024-01-07T06:59:00.553Z,2.78
2024-01-07T07:01:03.872Z,2.88
2024-01-07T07:03:05.611Z,2.81
2024-01-07T07:05:07.847Z,2.90
2024-01-07T07:07:09.624Z,2.91
2024-01-07T07:09:11.207Z,2.99
2024-01-07T07:11:12.801Z,3.01
2024-01-07T07:13:14.342Z,2.76
2024-01-07T07:15:15.880Z,2.82
2024-01-07T07:17:18.808Z,2.92
2024-01-07T07:19:20.428Z,2.80
2024-01-07T07:21:21.979Z,2.90
2024-01-07T07:23:23.509Z,2.97
2024-01-07T07:25:25.148Z,2.83
2024-01-07T07:27:26.936Z,2.82
2024-01-07T07:29:28.465Z,2.81
2024-01-07T07:31:30.083Z,2.79
2024-01-07T07:33:33.144Z,2.81
2024-01-07T07:35:34.829Z,2.77
2024-01-07T07:37:36.486Z,2.79
2024-01-07T07:39:38.152Z,2.78
2024-01-07T07:41:39.757Z,2.58
2024-01-07T07:43:41.420Z,2.73
2024-01-07T07:45:43.055Z,2.79
2024-01-07T07:47:45.493Z,2.76
2024-01-07T07:49:48.707Z,2.75
2024-01-07T07:51:50.354Z,2.68
2024-01-07T07:53:51.929Z,2.46
2024-01-07T07:55:53.436Z,2.47
2024-01-07T07:57:55.080Z,2.43
2024-01-07T07:59:56.675Z,2.45
2024-01-07T08:01:58.366Z,2.36
2024-01-07T08:04:00.078Z,2.35
2024-01-07T08:06:03.296Z,2.44
2024-01-07T08:08:05.779Z,2.34
2024-01-07T08:10:08.549Z,2.37
2024-01-07T08:12:10.195Z,2.40
2024-01-07T08:14:11.736Z,2.38
2024-01-07T08:16:13.359Z,2.39
2024-01-07T08:18:14.987Z,2.39
2024-01-07T08:20:16.774Z,2.37
2024-01-07T08:22:19.723Z,2.45
2024-01-07T08:24:21.261Z,2.56
2024-01-07T08:26:22.896Z,2.40
2024-01-07T08:28:24.515Z,2.35
2024-01-07T08:30:26.073Z,2.38
2024-01-07T08:32:27.739Z,2.47
2024-01-07T08:34:29.486Z,2.45
2024-01-07T08:36:31.254Z,2.40
2024-01-07T08:38:34.154Z,2.45
2024-01-07T08:40:35.726Z,2.34
2024-01-07T08:42:37.679Z,2.34
2024-01-07T08:44:39.247Z,2.37
2024-01-07T08:46:40.744Z,2.49
2024-01-07T08:48:42.436Z,2.55
2024-01-07T08:50:44.089Z,2.37
2024-01-07T08:52:45.616Z,2.36
2024-01-07T08:54:48.511Z,2.41
2024-01-07T08:56:50.081Z,2.42
2024-01-07T08:58:51.630Z,2.38
2024-01-07T09:00:53.271Z,2.44
2024-01-07T09:02:54.857Z,2.42
2024-01-07T09:04:56.381Z,2.47
2024-01-07T09:06:57.895Z,2.43
2024-01-07T09:08:59.427Z,2.52
2024-01-07T09:11:04.661Z,2.51
2024-01-07T09:13:06.381Z,2.56
2024-01-07T09:15:08.789Z,2.60
2024-01-07T09:17:10.358Z,2.47
2024-01-07T09:19:14.535Z,2.48
2024-01-07T09:21:16.662Z,2.54
2024-01-07T09:23:18.196Z,2.20
2024-01-07T09:25:19.973Z,2.27
2024-01-07T09:27:22.925Z,2.38
2024-01-07T09:29:24.495Z,2.34
2024-01-07T09:31:26.168Z,2.37
2024-01-07T09:33:27.857Z,2.39
2024-01-07T09:35:29.509Z,2.42
2024-01-07T09:37:31.081Z,2.37
2024-01-07T09:39:32.614Z,2.32
2024-01-07T09:41:34.204Z,2.42
2024-01-07T09:43:37.268Z,2.05
2024-01-07T09:45:39.743Z,2.28
2024-01-07T09:47:42.611Z,2.42
2024-01-07T09:49:44.931Z,2.39
2024-01-07T09:51:46.690Z,2.50
2024-01-07T09:53:49.797Z,2.45
2024-01-07T09:55:55.736Z,2.51
2024-01-07T09:57:57.296Z,2.41
2024-01-07T10:00:01.223Z,2.56
2024-01-07T10:02:03.297Z,2.58
2024-01-07T10:04:05.268Z,2.41
2024-01-07T10:06:07.129Z,2.41
2024-01-07T10:08:08.925Z,2.45
2024-01-07T10:10:17.846Z,3.10
2024-01-07T10:12:23.880Z,3.26
2024-01-07T10:14:25.432Z,2.85
2024-01-07T10:16:28.285Z,2.76
2024-01-07T10:18:31.625Z,2.69
2024-01-07T10:20:33.907Z,2.51
2024-01-07T10:22:35.499Z,2.30
2024-01-07T10:24:38.129Z,2.39
2024-01-07T10:26:40.938Z,2.45
2024-01-07T10:28:42.477Z,2.43
2024-01-07T10:30:49.884Z,2.55
2024-01-07T10:32:56.732Z,2.40
2024-01-07T10:35:04.335Z,2.48
2024-01-07T10:37:06.886Z,2.23
2024-01-07T10:39:08.936Z,2.25
2024-01-07T10:41:12.268Z,2.18
2024-01-07T10:43:16.401Z,2.14
2024-01-07T10:45:17.814Z,2.17
2024-01-07T10:47:23.175Z,2.22
2024-01-07T10:49:27.544Z,2.06
2024-01-07T10:51:29.644Z,2.23
2024-01-07T10:53:34.789Z,2.06
2024-01-07T10:55:41.211Z,2.09
2024-01-07T10:57:44.440Z,2.22
2024-01-07T10:59:46.577Z,2.13
2024-01-07T11:01:48.233Z,1.96
2024-01-07T11:03:58.421Z,2.01
2024-01-07T11:06:10.338Z,1.94
2024-01-07T11:08:22.994Z,1.75
2024-01-07T11:10:38.715Z,1.79
2024-01-07T11:12:54.710Z,1.97
2024-01-07T11:14:56.243Z,1.92
2024-01-07T11:17:00.882Z,2.01
2024-01-07T11:19:02.634Z,1.89
2024-01-07T11:21:05.666Z,1.99
2024-01-07T11:23:27.602Z,1.92
2024-01-07T11:25:30.723Z,1.84
2024-01-07T11:27:33.088Z,1.81
2024-01-07T11:29:34.651Z,1.72
2024-01-07T11:31:46.724Z,1.49
2024-01-07T11:33:49.890Z,1.63
2024-01-07T11:35:58.233Z,1.64
2024-01-07T11:38:01.609Z,1.69
2024-01-07T11:40:07.821Z,1.78
2024-01-07T11:42:15.416Z,1.92
2024-01-07T11:44:16.947Z,1.93
2024-01-07T11:46:18.625Z,2.07
2024-01-07T11:48:20.457Z,2.08
2024-01-07T11:50:26.496Z,2.13
2024-01-07T11:52:28.019Z,2.05
2024-01-07T11:54:32.261Z,2.10
2024-01-07T11:56:33.983Z,2.14
2024-01-07T11:58:35.522Z,2.06
2024-01-07T12:00:37.345Z,1.94
2024-01-07T12:02:41.932Z,1.94
2024-01-07T12:04:43.516Z,1.96
2024-01-07T12:06:45.724Z,2.10
2024-01-07T12:08:47.546Z,2.16
2024-01-07T12:10:50.471Z,1.96
2024-01-07T12:12:53.717Z,2.01
2024-01-07T12:14:55.903Z,1.85
2024-01-07T12:16:57.519Z,1.74
2024-01-07T12:18:59.163Z,1.77
2024-01-07T12:21:01.176Z,1.77
2024-01-07T12:23:09.627Z,1.57
2024-01-07T12:25:11.369Z,1.73
2024-01-07T12:27:14.599Z,1.77
2024-01-07T12:29:16.707Z,1.62
2024-01-07T12:31:18.418Z,1.69
2024-01-07T12:33:20.545Z,1.79
2024-01-07T12:35:22.218Z,1.84
2024-01-07T12:37:23.784Z,1.86
2024-01-07T12:39:28.173Z,1.83
2024-01-07T12:41:30.252Z,1.79
2024-01-07T12:43:33.476Z,1.62
2024-01-07T12:45:35.103Z,1.49
2024-01-07T12:47:36.644Z,1.50
2024-01-07T12:49:38.283Z,1.41
2024-01-07T12:51:39.928Z,1.40
2024-01-07T12:53:41.507Z,1.46
2024-01-07T12:55:43.025Z,1.55
2024-01-07T12:57:44.548Z,1.46
2024-01-07T12:59:47.442Z,1.39
2024-01-07T13:01:49.237Z,1.35
2024-01-07T13:03:51.132Z,1.18
2024-01-07T13:05:52.897Z,1.17
2024-01-07T13:08:00.988Z,1.16
2024-01-07T13:10:02.653Z,1.23
2024-01-07T13:12:04.720Z,1.27
2024-01-07T13:14:06.468Z,1.37
2024-01-07T13:16:09.865Z,1.38
2024-01-07T13:18:12.105Z,1.44
2024-01-07T13:20:14.036Z,1.41
2024-01-07T13:22:15.655Z,1.47
2024-01-07T13:24:17.632Z,1.38
2024-01-07T13:26:20.335Z,1.51
2024-01-07T13:28:23.576Z,1.47
2024-01-07T13:30:26.712Z,1.33
2024-01-07T13:32:30.176Z,0.97
2024-01-07T13:34:31.962Z,1.17
2024-01-07T13:36:34.255Z,1.25
2024-01-07T13:38:35.896Z,1.26
2024-01-07T13:40:37.677Z,1.44
2024-01-07T13:42:39.266Z,1.47
2024-01-07T13:44:40.866Z,1.30
2024-01-07T13:46:42.445Z,1.27
2024-01-07T13:48:45.449Z,1.36
2024-01-07T13:50:47.032Z,1.37
2024-01-07T13:52:48.696Z,1.30
2024-01-07T13:54:51.507Z,1.23
2024-01-07T13:56:53.858Z,1.22
2024-01-07T13:58:55.655Z,1.31
2024-01-07T14:00:57.315Z,1.31
2024-01-07T14:02:58.990Z,1.25
2024-01-07T14:05:02.011Z,1.40
2024-01-07T14:07:03.861Z,1.26
2024-01-07T14:09:05.479Z,1.43
2024-01-07T14:11:07.085Z,1.46
2024-01-07T14:13:08.933Z,1.44
2024-01-07T14:15:10.537Z,1.41
2024-01-07T14:17:12.133Z,1.29
2024-01-07T14:19:14.057Z,1.16
2024-01-07T14:21:17.013Z,1.05
2024-01-07T14:23:18.592Z,1.03
2024-01-07T14:25:20.310Z,1.18
2024-01-07T14:27:21.857Z,0.88
2024-01-07T14:29:23.828Z,0.94
2024-01-07T14:31:25.458Z,1.04
2024-01-07T14:33:27.180Z,1.15
2024-01-07T14:35:28.839Z,1.03
2024-01-07T14:37:31.868Z,1.04
2024-01-07T14:39:33.554Z,0.98
2024-01-07T14:41:46.888Z,1.06
2024-01-07T14:43:48.660Z,1.05
2024-01-07T14:45:50.292Z,0.74
2024-01-07T14:47:51.998Z,0.79
2024-01-07T14:49:53.562Z,0.79
2024-01-07T14:51:55.421Z,0.84
2024-01-07T14:53:58.463Z,0.94
2024-01-07T14:56:00.025Z,0.67
2024-01-07T14:58:01.630Z,0.69
2024-01-07T15:00:04.263Z,0.79
2024-01-07T15:02:06.527Z,0.73
2024-01-07T15:04:08.438Z,0.70
2024-01-07T15:06:10.039Z,0.64
2024-01-07T15:08:11.554Z,0.61
2024-01-07T15:10:17.607Z,0.71
2024-01-07T15:12:19.319Z,0.66
2024-01-07T15:14:20.902Z,0.60
2024-01-07T15:16:22.462Z,0.58
2024-01-07T15:18:24.280Z,0.65
2024-01-07T15:20:25.987Z,0.52
2024-01-07T15:22:27.623Z,0.53
2024-01-07T15:24:29.263Z,0.59
2024-01-07T15:26:32.259Z,0.82
2024-01-07T15:28:33.949Z,0.60
2024-01-07T15:30:35.684Z,0.39
2024-01-07T15:32:37.354Z,0.43
2024-01-07T15:34:39.082Z,0.53
2024-01-07T15:36:40.742Z,0.42
2024-01-07T15:38:42.257Z,0.55
2024-01-07T15:40:43.965Z,0.63
2024-01-07T15:42:46.896Z,0.67
2024-01-07T15:44:49.760Z,0.63
2024-01-07T15:46:52.698Z,0.30
2024-01-07T15:48:58.834Z,0.56
2024-01-07T15:51:02.193Z,0.54
2024-01-07T15:53:06.844Z,0.45
2024-01-07T15:55:09.753Z,0.42
2024-01-07T15:57:11.374Z,0.39
2024-01-07T15:59:14.300Z,0.34
2024-01-07T16:01:15.946Z,0.26
2024-01-07T16:03:17.604Z,0.38
2024-01-07T16:05:19.290Z,0.49
2024-01-07T16:07:20.989Z,0.39
2024-01-07T16:09:22.499Z,0.13
2024-01-07T16:11:24.148Z,0.20
2024-01-07T16:13:26.015Z,0.00
2024-01-07T16:15:29.006Z,0.13
2024-01-07T16:17:30.760Z,0.13
2024-01-07T16:19:32.527Z,0.11
2024-01-07T16:21:34.259Z,0.11
2024-01-07T16:23:35.823Z,0.10
2024-01-07T16:25:37.363Z,0.10
2024-01-07T16:27:39.020Z,0.08
2024-01-07T16:29:45.308Z,0.09
2024-01-07T16:31:49.409Z,0.05
2024-01-07T16:33:51.101Z,-0.01
2024-01-07T16:35:52.737Z,0.06
2024-01-07T16:37:54.339Z,0.15
2024-01-07T16:39:56.031Z,0.08
2024-01-07T16:41:57.576Z,-0.05
2024-01-07T16:43:59.109Z,-0.15
2024-01-07T16:46:00.945Z,-0.13
2024-01-07T16:48:04.707Z,-0.05
2024-01-07T16:52:11.605Z,0.11
2024-01-07T16:54:13.308Z,-0.16
2024-01-07T16:56:17.047Z,-0.04
2024-01-07T16:58:18.821Z,0.10
2024-01-07T17:00:20.794Z,0.20
2024-01-07T17:02:23.040Z,0.04
2024-01-07T17:04:26.049Z,-0.05
2024-01-07T17:06:27.629Z,-0.00
2024-01-07T17:08:29.252Z,0.07
2024-01-07T17:10:30.794Z,-0.20
2024-01-07T17:12:32.331Z,-0.56
2024-01-07T17:14:33.825Z,-0.37
2024-01-07T17:16:35.384Z,-0.51
2024-01-07T17:18:37.039Z,-0.31
2024-01-07T17:20:40.001Z,-0.21
2024-01-07T17:22:42.525Z,-0.33
2024-01-07T17:24:44.135Z,-0.31
2024-01-07T17:26:45.699Z,-0.22
2024-01-07T17:28:48.252Z,-0.27
2024-01-07T17:30:49.864Z,-0.38
2024-01-07T17:32:54.262Z,-0.36
2024-01-07T17:34:56.886Z,-0.05
2024-01-07T17:37:00.218Z,-0.01
2024-01-07T17:39:01.866Z,0.44
2024-01-07T17:41:03.518Z,0.34
2024-01-07T17:43:05.081Z,0.00
2024-01-07T17:45:07.209Z,-0.18
2024-01-07T17:47:08.795Z,-0.19
2024-01-07T17:49:10.429Z,-0.33
2024-01-07T17:51:11.978Z,-0.37
2024-01-07T17:53:14.886Z,-0.62
2024-01-07T17:55:16.631Z,-0.56
2024-01-07T17:57:18.164Z,-0.49
2024-01-07T17:59:19.763Z,-0.61
2024-01-07T18:01:21.341Z,-0.63
2024-01-07T18:03:22.923Z,-0.63
2024-01-07T18:05:24.651Z,-0.58
2024-01-07T18:07:26.312Z,-0.66
2024-01-07T18:09:29.220Z,-0.78
2024-01-07T18:11:30.798Z,-0.77
2024-01-07T18:13:32.420Z,-0.63
2024-01-07T18:15:34.044Z,-0.58
2024-01-07T18:17:35.647Z,-0.72
2024-01-07T18:19:37.374Z,-0.65
2024-01-07T18:21:38.919Z,-0.59
2024-01-07T18:23:40.422Z,-0.75
2024-01-07T18:25:43.432Z,-0.86
2024-01-07T18:27:45.029Z,-0.95
2024-01-07T18:29:46.583Z,-1.10
2024-01-07T18:31:48.163Z,-0.91
2024-01-07T18:33:49.791Z,-0.68
2024-01-07T18:35:51.530Z,-0.69
2024-01-07T18:37:53.143Z,-0.60
2024-01-07T18:39:54.712Z,-0.66
2024-01-07T18:41:57.645Z,-0.60
2024-01-07T18:43:59.227Z,-0.83
2024-01-07T18:46:00.802Z,-0.79
2024-01-07T18:48:02.460Z,-0.69
2024-01-07T18:50:04.654Z,-0.87
2024-01-07T18:52:06.564Z,-1.07
2024-01-07T18:54:08.110Z,-1.03
2024-01-07T18:56:10.222Z,-1.04
2024-01-07T18:58:13.675Z,-1.24
2024-01-07T19:00:16.182Z,-1.06
2024-01-07T19:02:17.778Z,-0.94
2024-01-07T19:04:19.442Z,-1.09
2024-01-07T19:06:20.985Z,-1.06
2024-01-07T19:08:22.727Z,-0.99
2024-01-07T19:10:24.307Z,-1.10
2024-01-07T19:12:25.915Z,-1.20
2024-01-07T19:14:28.817Z,-1.18
2024-01-07T19:16:30.350Z,-1.34
2024-01-07T19:18:32.745Z,-1.43
2024-01-07T19:20:34.437Z,-1.33
2024-01-07T19:22:36.082Z,-1.54
2024-01-07T19:24:37.713Z,-1.50
2024-01-07T19:26:40.291Z,-1.31
2024-01-07T19:28:42.932Z,-1.41
2024-01-07T19:30:46.070Z,-1.33
2024-01-07T19:32:47.751Z,-1.39
2024-01-07T19:34:49.400Z,-1.58
2024-01-07T19:36:51.110Z,-1.59
2024-01-07T19:38:52.609Z,-1.64
2024-01-07T19:40:54.130Z,-1.45
2024-01-07T19:42:55.760Z,-1.47
2024-01-07T19:44:57.289Z,-1.51
2024-01-07T19:47:00.212Z,-1.54
2024-01-07T19:49:03.481Z,-1.53
2024-01-07T19:51:05.783Z,-1.65
2024-01-07T19:53:13.405Z,-1.60
2024-01-07T19:55:17.904Z,-1.69
2024-01-07T19:57:19.394Z,-1.56
2024-01-07T19:59:21.127Z,-1.55
2024-01-07T20:01:22.853Z,-1.58
2024-01-07T20:03:25.808Z,-1.53
2024-01-07T20:05:27.520Z,-1.50
2024-01-07T20:07:29.227Z,-1.50
2024-01-07T20:09:30.785Z,-1.57
2024-01-07T20:11:32.774Z,-1.60
2024-01-07T20:13:35.217Z,-1.71
2024-01-07T20:15:36.968Z,-1.67
2024-01-07T20:17:38.772Z,-1.62
2024-01-07T20:19:41.754Z,-1.64
2024-01-07T20:21:43.653Z,-1.52
2024-01-07T20:23:45.158Z,-1.78
2024-01-07T20:25:46.992Z,-1.77
2024-01-07T20:27:49.970Z,-2.00
2024-01-07T20:29:52.048Z,-1.78
2024-01-07T20:31:53.807Z,-1.73
2024-01-07T20:33:55.579Z,-1.71
2024-01-07T20:35:58.768Z,-1.88
2024-01-07T20:38:04.181Z,-1.87
2024-01-07T20:40:08.291Z,-2.09
2024-01-07T20:42:18.707Z,-1.80
2024-01-07T20:44:29.131Z,-1.97
2024-01-07T20:46:30.941Z,-1.84
2024-01-07T20:48:33.001Z,-1.78
2024-01-07T20:50:35.766Z,-2.12
2024-01-07T20:52:38.688Z,-2.24
2024-01-07T20:54:40.221Z,-2.31
2024-01-07T20:56:43.010Z,-2.42
2024-01-07T20:58:44.965Z,-2.26
2024-01-07T21:00:46.625Z,-2.12
2024-01-07T21:02:48.790Z,-1.21
2024-01-07T21:04:50.902Z,-1.54
2024-01-07T21:06:52.461Z,-1.77
2024-01-07T21:08:55.408Z,-1.79
2024-01-07T21:10:56.954Z,-1.81
2024-01-07T21:12:59.137Z,-1.88
2024-01-07T21:15:01.036Z,-2.42
2024-01-07T21:17:02.576Z,-2.43
2024-01-07T21:19:04.237Z,-2.36
2024-01-07T21:21:06.113Z,-2.35
2024-01-07T21:23:09.041Z,-2.44
2024-01-07T21:25:12.239Z,-2.51
2024-01-07T21:27:13.774Z,-2.34
2024-01-07T21:29:15.383Z,-2.48
2024-01-07T21:31:19.472Z,-2.31
2024-01-07T21:33:21.455Z,-2.34
2024-01-07T21:35:23.987Z,-2.55
2024-01-07T21:37:25.873Z,-2.80
2024-01-07T21:39:27.409Z,-2.56
2024-01-07T21:41:30.357Z,-2.47
2024-01-07T21:43:31.982Z,-2.44
2024-01-07T21:45:33.535Z,-2.43
2024-01-07T21:47:35.272Z,-2.48
2024-01-07T21:49:36.865Z,-2.34
2024-01-07T21:51:38.536Z,-2.40
2024-01-07T21:53:40.114Z,-2.31
2024-01-07T21:55:41.767Z,-2.21
2024-01-07T21:57:44.692Z,-2.18
2024-01-07T21:59:46.424Z,-2.14
2024-01-07T22:01:48.264Z,-2.19
2024-01-07T22:03:49.843Z,-2.06
2024-01-07T22:05:52.090Z,-2.14
2024-01-07T22:07:53.655Z,-2.08
2024-01-07T22:09:55.418Z,-2.08
2024-01-07T22:11:58.156Z,-2.26
2024-01-07T22:14:01.158Z,-2.25
2024-01-07T22:16:02.749Z,-2.42
2024-01-07T22:18:04.872Z,-2.28
2024-01-07T22:20:08.250Z,-2.33
2024-01-07T22:22:09.809Z,-2.37
2024-01-07T22:24:11.490Z,-2.41
2024-01-07T22:26:13.107Z,-2.25
2024-01-07T22:28:14.706Z,-2.49
2024-01-07T22:30:17.963Z,-2.47
2024-01-07T22:32:19.630Z,-2.51
2024-01-07T22:34:21.274Z,-2.39
2024-01-07T22:36:22.860Z,-2.37
2024-01-07T22:38:24.499Z,-2.57
2024-01-07T22:40:26.030Z,-2.64
2024-01-07T22:42:27.617Z,-2.69
2024-01-07T22:44:29.301Z,-2.65
2024-01-07T22:46:32.258Z,-2.59
2024-01-07T22:48:33.853Z,-2.78
2024-01-07T22:50:35.552Z,-2.61
2024-01-07T22:52:37.200Z,-2.51
2024-01-07T22:54:39.811Z,-2.47
2024-01-07T22:56:41.662Z,-2.46
2024-01-07T22:58:43.232Z,-2.57
2024-01-07T23:00:44.793Z,-2.58
2024-01-07T23:02:47.833Z,-2.58
2024-01-07T23:04:49.760Z,-2.45
2024-01-07T23:06:51.451Z,-2.52
2024-01-07T23:08:53.049Z,-2.56
2024-01-07T23:10:54.713Z,-2.48
2024-01-07T23:12:56.257Z,-2.37
2024-01-07T23:14:57.872Z,-2.46
2024-01-07T23:16:59.946Z,-2.42
2024-01-07T23:19:03.236Z,-2.45
2024-01-07T23:21:08.804Z,-2.52
2024-01-07T23:23:12.283Z,-2.36
2024-01-07T23:25:13.848Z,-2.43
2024-01-07T23:27:15.403Z,-2.56
2024-01-07T23:29:16.942Z,-2.60
2024-01-07T23:31:18.588Z,-2.70
2024-01-07T23:33:20.279Z,-2.55
2024-01-07T23:35:23.236Z,-2.71
2024-01-07T23:37:24.918Z,-2.51
2024-01-07T23:39:26.436Z,-2.41
2024-01-07T23:41:28.085Z,-2.41
2024-01-07T23:43:29.771Z,-2.38
2024-01-07T23:45:31.378Z,-2.66
2024-01-07T23:47:35.561Z,-2.48
2024-01-07T23:49:39.269Z,-2.42
2024-01-07T23:51:42.124Z,-2.52
2024-01-07T23:53:43.660Z,-2.57
2024-01-07T23:55:45.264Z,-2.44
2024-01-07T23:57:46.786Z,-2.56
2024-01-07T23:59:48.436Z,-2.45
